Decoded Metar for KDEN (DENVER in CO, USA) (IATA:DEN) | Meteo·Mobile Aviation Weather
aviador You're here:

KDEN Decoded Metar

DENVER in CO, USA
Report Time2018-11-18 10:20:00
UTC Time2018-11-18 10:31:26
Flight Rules ifr IFR
Wind250° at 08 kt
W.Decomp.*RWY 25: 7.9 kt HW 1.1 kt LCW
RWY 26: 7.6 kt HW 2.5 kt LCW
RWY 17: 2.5 kt HW 7.6 kt RCW
RWY 16: 1.1 kt HW 7.9 kt RCW
W.Rank250° ranks 9
Current wind is above 250° avg. (7.5)
Visibility9999 m
Phenomena:N/A
Clouds:Overcast 009 Hf
Expected CloudBase > 400 ft AGL from Temp-Dew spread
Ceiling900 ft
Temp-6°C (ISA -10)
Dew Point-7°C (93% RH)
AAT-11.7°C
QNH1023 hPa
Density Alt3,848 ft
Elevation5,381 ft
Report Wrong Elevation
Raw Report
KDEN 181020Z 25008KT 10SM OVC009 M06/M07 A3020 RMK AO2 T10561072
$=

Extra information for KDEN:More info

Metar Taf Metar & Taf Last 4 Metars F.Rules Stats Wind Profile Meteogram Temp Stats Airport Information Weather charts Add Link Nearby VenuesMetar ALERT Operation Metar Decoded Social comments

AIRNAV info for KDEN